sensor_id;sensor_type;location;lat;lon;timestamp;temperature;humidity
33460;DHT22;19795;53.160;6.612;2022-09-06T03:40:36;18.10;99.90
33460;DHT22;19795;53.160;6.612;2022-09-06T03:43:01;18.10;99.90
33460;DHT22;19795;53.160;6.612;2022-09-06T03:45:27;18.00;99.90
33460;DHT22;19795;53.160;6.612;2022-09-06T03:47:52;18.00;99.90
33460;DHT22;19795;53.160;6.612;2022-09-06T03:50:18;18.00;99.90
33460;DHT22;19795;53.160;6.612;2022-09-06T03:52:44;18.00;99.90
33460;DHT22;19795;53.160;6.612;2022-09-06T03:55:09;18.00;99.90
33460;DHT22;19795;53.160;6.612;2022-09-06T03:57:36;18.10;99.90
33460;DHT22;19795;53.160;6.612;2022-09-06T04:00:02;18.00;99.90
33460;DHT22;19795;53.160;6.612;2022-09-06T04:02:28;18.00;99.90
33460;DHT22;19795;53.160;6.612;2022-09-06T04:04:54;18.00;99.90
33460;DHT22;19795;53.160;6.612;2022-09-06T04:07:21;18.00;99.90
33460;DHT22;19795;53.160;6.612;2022-09-06T04:09:47;18.00;99.90
33460;DHT22;19795;53.160;6.612;2022-09-06T04:12:13;18.00;99.90
33460;DHT22;19795;53.160;6.612;2022-09-06T04:14:38;18.00;99.90
33460;DHT22;19795;53.160;6.612;2022-09-06T04:17:04;18.00;99.90
33460;DHT22;19795;53.160;6.612;2022-09-06T04:19:29;18.00;99.90
33460;DHT22;19795;53.160;6.612;2022-09-06T04:21:55;18.00;99.90
33460;DHT22;19795;53.160;6.612;2022-09-06T04:24:21;18.00;99.90
33460;DHT22;19795;53.160;6.612;2022-09-06T04:26:46;18.00;99.90
33460;DHT22;19795;53.160;6.612;2022-09-06T04:29:12;18.00;99.90
33460;DHT22;19795;53.160;6.612;2022-09-06T04:31:38;18.00;99.90
33460;DHT22;19795;53.160;6.612;2022-09-06T04:34:03;18.10;99.90
33460;DHT22;19795;53.160;6.612;2022-09-06T04:36:29;18.00;99.90
33460;DHT22;19795;53.160;6.612;2022-09-06T04:38:55;18.10;99.90
33460;DHT22;19795;53.160;6.612;2022-09-06T04:41:20;18.10;99.90
33460;DHT22;19795;53.160;6.612;2022-09-06T04:43:46;18.10;99.90
33460;DHT22;19795;53.160;6.612;2022-09-06T04:48:41;18.00;99.90
33460;DHT22;19795;53.160;6.612;2022-09-06T04:51:07;18.00;99.90
33460;DHT22;19795;53.160;6.612;2022-09-06T04:53:32;18.00;99.90
33460;DHT22;19795;53.160;6.612;2022-09-06T04:55:58;18.00;99.90
33460;DHT22;19795;53.160;6.612;2022-09-06T04:58:24;18.00;99.90
33460;DHT22;19795;53.160;6.612;2022-09-06T05:00:50;17.90;99.90
33460;DHT22;19795;53.160;6.612;2022-09-06T05:03:16;17.90;99.90
33460;DHT22;19795;53.160;6.612;2022-09-06T05:05:41;17.90;99.90
33460;DHT22;19795;53.160;6.612;2022-09-06T05:08:07;17.90;99.90
33460;DHT22;19795;53.160;6.612;2022-09-06T05:10:32;17.80;99.90
33460;DHT22;19795;53.160;6.612;2022-09-06T05:12:58;17.80;99.90
33460;DHT22;19795;53.160;6.612;2022-09-06T05:15:24;17.80;99.90
33460;DHT22;19795;53.160;6.612;2022-09-06T05:17:50;17.80;99.90
33460;DHT22;19795;53.160;6.612;2022-09-06T05:20:16;17.70;99.90
33460;DHT22;19795;53.160;6.612;2022-09-06T05:22:42;17.80;99.90
33460;DHT22;19795;53.160;6.612;2022-09-06T05:25:08;17.70;99.90
33460;DHT22;19795;53.160;6.612;2022-09-06T05:27:34;17.80;99.90
33460;DHT22;19795;53.160;6.612;2022-09-06T05:30:00;17.80;99.90
33460;DHT22;19795;53.160;6.612;2022-09-06T05:32:27;17.80;99.90
33460;DHT22;19795;53.160;6.612;2022-09-06T05:34:53;17.80;99.90
33460;DHT22;19795;53.160;6.612;2022-09-06T05:37:18;17.80;99.90
33460;DHT22;19795;53.160;6.612;2022-09-06T05:39:44;17.80;99.90
33460;DHT22;19795;53.160;6.612;2022-09-06T05:42:10;17.90;99.90
33460;DHT22;19795;53.160;6.612;2022-09-06T05:44:36;18.00;99.90
33460;DHT22;19795;53.160;6.612;2022-09-06T05:47:02;18.00;99.90
33460;DHT22;19795;53.160;6.612;2022-09-06T05:49:29;18.00;99.90
33460;DHT22;19795;53.160;6.612;2022-09-06T05:51:55;18.00;99.90
33460;DHT22;19795;53.160;6.612;2022-09-06T05:54:21;18.10;99.90
33460;DHT22;19795;53.160;6.612;2022-09-06T05:56:47;18.10;99.90
33460;DHT22;19795;53.160;6.612;2022-09-06T05:59:24;18.10;99.90
33460;DHT22;19795;53.160;6.612;2022-09-06T06:01:52;18.10;99.90
33460;DHT22;19795;53.160;6.612;2022-09-06T06:04:18;18.10;99.90
33460;DHT22;19795;53.160;6.612;2022-09-06T06:06:44;18.20;99.90
33460;DHT22;19795;53.160;6.612;2022-09-06T06:09:13;18.20;99.90
33460;DHT22;19795;53.160;6.612;2022-09-06T06:11:39;18.20;99.90
33460;DHT22;19795;53.160;6.612;2022-09-06T06:14:07;18.10;99.90
33460;DHT22;19795;53.160;6.612;2022-09-06T06:16:33;18.20;99.90
33460;DHT22;19795;53.160;6.612;2022-09-06T06:18:59;18.20;99.90
33460;DHT22;19795;53.160;6.612;2022-09-06T06:21:26;18.30;99.90
33460;DHT22;19795;53.160;6.612;2022-09-06T06:23:54;18.30;99.90
33460;DHT22;19795;53.160;6.612;2022-09-06T06:26:21;18.40;99.90
33460;DHT22;19795;53.160;6.612;2022-09-06T06:28:47;18.40;99.90
33460;DHT22;19795;53.160;6.612;2022-09-06T06:31:13;18.30;99.90
33460;DHT22;19795;53.160;6.612;2022-09-06T06:33:40;18.30;99.90
33460;DHT22;19795;53.160;6.612;2022-09-06T06:36:18;18.30;99.90
33460;DHT22;19795;53.160;6.612;2022-09-06T06:38:46;18.30;99.90
33460;DHT22;19795;53.160;6.612;2022-09-06T06:41:14;18.30;99.90
33460;DHT22;19795;53.160;6.612;2022-09-06T06:43:40;18.30;99.90
33460;DHT22;19795;53.160;6.612;2022-09-06T06:46:14;18.30;99.90
33460;DHT22;19795;53.160;6.612;2022-09-06T06:48:42;18.30;99.90
33460;DHT22;19795;53.160;6.612;2022-09-06T06:51:09;18.40;99.90
33460;DHT22;19795;53.160;6.612;2022-09-06T06:53:35;18.50;99.90
33460;DHT22;19795;53.160;6.612;2022-09-06T06:56:11;18.50;99.90
33460;DHT22;19795;53.160;6.612;2022-09-06T06:58:37;18.60;99.90
33460;DHT22;19795;53.160;6.612;2022-09-06T07:01:03;18.60;99.90
33460;DHT22;19795;53.160;6.612;2022-09-06T07:03:28;18.60;99.90
33460;DHT22;19795;53.160;6.612;2022-09-06T07:05:54;18.60;99.90
33460;DHT22;19795;53.160;6.612;2022-09-06T07:08:20;18.70;99.90
33460;DHT22;19795;53.160;6.612;2022-09-06T07:10:46;18.80;99.90
33460;DHT22;19795;53.160;6.612;2022-09-06T07:13:11;18.90;99.90
33460;DHT22;19795;53.160;6.612;2022-09-06T07:15:37;18.90;99.90
33460;DHT22;19795;53.160;6.612;2022-09-06T07:18:02;19.00;99.90
33460;DHT22;19795;53.160;6.612;2022-09-06T07:20:28;19.10;99.90
33460;DHT22;19795;53.160;6.612;2022-09-06T07:23:01;19.30;99.90
33460;DHT22;19795;53.160;6.612;2022-09-06T07:25:28;19.40;99.90
33460;DHT22;19795;53.160;6.612;2022-09-06T07:28:01;19.50;99.90
33460;DHT22;19795;53.160;6.612;2022-09-06T07:30:29;19.70;99.90
33460;DHT22;19795;53.160;6.612;2022-09-06T07:32:57;20.20;99.90
33460;DHT22;19795;53.160;6.612;2022-09-06T07:35:23;21.60;99.90
33460;DHT22;19795;53.160;6.612;2022-09-06T07:37:52;22.30;99.90
33460;DHT22;19795;53.160;6.612;2022-09-06T07:40:18;21.70;99.90
33460;DHT22;19795;53.160;6.612;2022-09-06T07:42:43;21.40;99.90
33460;DHT22;19795;53.160;6.612;2022-09-06T07:45:09;22.40;99.90
33460;DHT22;19795;53.160;6.612;2022-09-06T07:47:34;22.80;99.90
33460;DHT22;19795;53.160;6.612;2022-09-06T07:50:00;23.50;99.90
33460;DHT22;19795;53.160;6.612;2022-09-06T07:52:27;24.20;99.90
33460;DHT22;19795;53.160;6.612;2022-09-06T07:54:52;23.00;99.90
33460;DHT22;19795;53.160;6.612;2022-09-06T07:57:21;22.00;99.90
33460;DHT22;19795;53.160;6.612;2022-09-06T07:59:47;21.00;99.90
33460;DHT22;19795;53.160;6.612;2022-09-06T08:02:13;20.90;99.90
33460;DHT22;19795;53.160;6.612;2022-09-06T08:04:39;21.60;99.90
33460;DHT22;19795;53.160;6.612;2022-09-06T08:07:06;22.30;99.90
33460;DHT22;19795;53.160;6.612;2022-09-06T08:09:31;22.80;99.90
33460;DHT22;19795;53.160;6.612;2022-09-06T08:11:57;23.00;99.90
33460;DHT22;19795;53.160;6.612;2022-09-06T08:14:23;23.40;99.90
33460;DHT22;19795;53.160;6.612;2022-09-06T08:16:49;24.10;99.90
33460;DHT22;19795;53.160;6.612;2022-09-06T08:19:14;24.60;99.90
33460;DHT22;19795;53.160;6.612;2022-09-06T08:21:40;24.30;99.90
33460;DHT22;19795;53.160;6.612;2022-09-06T08:24:07;23.90;99.90
33460;DHT22;19795;53.160;6.612;2022-09-06T08:26:36;23.00;99.90
33460;DHT22;19795;53.160;6.612;2022-09-06T08:29:05;22.50;99.90
33460;DHT22;19795;53.160;6.612;2022-09-06T08:31:34;22.80;99.90
33460;DHT22;19795;53.160;6.612;2022-09-06T08:34:01;22.70;99.90
33460;DHT22;19795;53.160;6.612;2022-09-06T08:36:27;23.10;99.90
33460;DHT22;19795;53.160;6.612;2022-09-06T08:39:01;23.40;99.90
33460;DHT22;19795;53.160;6.612;2022-09-06T08:41:36;23.90;99.90
33460;DHT22;19795;53.160;6.612;2022-09-06T08:44:26;24.60;99.90
33460;DHT22;19795;53.160;6.612;2022-09-06T08:46:55;25.10;99.90
33460;DHT22;19795;53.160;6.612;2022-09-06T08:49:23;25.00;99.90
33460;DHT22;19795;53.160;6.612;2022-09-06T08:52:30;25.20;99.90
33460;DHT22;19795;53.160;6.612;2022-09-06T08:58:13;25.40;99.90
33460;DHT22;19795;53.160;6.612;2022-09-06T09:00:52;24.80;99.90
33460;DHT22;19795;53.160;6.612;2022-09-06T09:03:25;25.10;99.90
33460;DHT22;19795;53.160;6.612;2022-09-06T09:05:55;25.50;99.90
33460;DHT22;19795;53.160;6.612;2022-09-06T09:08:31;25.60;99.90
33460;DHT22;19795;53.160;6.612;2022-09-06T09:11:02;25.90;99.90
33460;DHT22;19795;53.160;6.612;2022-09-06T09:13:39;26.40;99.90
33460;DHT22;19795;53.160;6.612;2022-09-06T09:16:08;26.10;99.90
33460;DHT22;19795;53.160;6.612;2022-09-06T09:18:37;25.50;99.90
33460;DHT22;19795;53.160;6.612;2022-09-06T09:21:04;24.50;99.90
33460;DHT22;19795;53.160;6.612;2022-09-06T09:23:30;23.90;99.90
33460;DHT22;19795;53.160;6.612;2022-09-06T09:26:01;23.40;99.90
33460;DHT22;19795;53.160;6.612;2022-09-06T09:28:27;23.10;99.90
33460;DHT22;19795;53.160;6.612;2022-09-06T09:30:55;23.20;99.90
33460;DHT22;19795;53.160;6.612;2022-09-06T09:33:33;23.40;99.90
33460;DHT22;19795;53.160;6.612;2022-09-06T09:36:09;23.50;99.90
33460;DHT22;19795;53.160;6.612;2022-09-06T09:38:43;23.20;99.90
33460;DHT22;19795;53.160;6.612;2022-09-06T09:41:32;23.20;99.90
33460;DHT22;19795;53.160;6.612;2022-09-06T09:44:01;23.50;99.90
33460;DHT22;19795;53.160;6.612;2022-09-06T09:46:33;24.80;99.90
33460;DHT22;19795;53.160;6.612;2022-09-06T09:51:34;26.60;99.90
33460;DHT22;19795;53.160;6.612;2022-09-06T09:54:07;26.00;99.90
33460;DHT22;19795;53.160;6.612;2022-09-06T09:59:37;25.80;99.90
33460;DHT22;19795;53.160;6.612;2022-09-06T10:02:33;26.30;99.90
33460;DHT22;19795;53.160;6.612;2022-09-06T10:07:47;27.00;99.90
33460;DHT22;19795;53.160;6.612;2022-09-06T10:10:22;26.30;99.90
33460;DHT22;19795;53.160;6.612;2022-09-06T10:13:18;26.30;99.90
33460;DHT22;19795;53.160;6.612;2022-09-06T10:15:48;26.00;99.90
33460;DHT22;19795;53.160;6.612;2022-09-06T10:18:36;25.80;99.90
33460;DHT22;19795;53.160;6.612;2022-09-06T10:21:10;25.20;99.90
33460;DHT22;19795;53.160;6.612;2022-09-06T10:24:11;25.20;99.90
33460;DHT22;19795;53.160;6.612;2022-09-06T10:26:52;24.90;99.90
33460;DHT22;19795;53.160;6.612;2022-09-06T10:32:39;26.20;99.90
33460;DHT22;19795;53.160;6.612;2022-09-06T10:35:30;27.10;99.90
33460;DHT22;19795;53.160;6.612;2022-09-06T10:40:59;27.00;99.90
33460;DHT22;19795;53.160;6.612;2022-09-06T10:46:26;27.40;99.90
33460;DHT22;19795;53.160;6.612;2022-09-06T10:48:53;27.50;99.80
33460;DHT22;19795;53.160;6.612;2022-09-06T10:51:30;27.50;99.90
33460;DHT22;19795;53.160;6.612;2022-09-06T10:56:46;27.10;99.80
33460;DHT22;19795;53.160;6.612;2022-09-06T10:59:27;27.20;99.90
33460;DHT22;19795;53.160;6.612;2022-09-06T11:04:41;28.40;98.30
33460;DHT22;19795;53.160;6.612;2022-09-06T11:09:57;27.40;98.80
33460;DHT22;19795;53.160;6.612;2022-09-06T11:15:03;28.20;98.70
33460;DHT22;19795;53.160;6.612;2022-09-06T11:20:12;28.50;97.90
33460;DHT22;19795;53.160;6.612;2022-09-06T11:27:59;27.70;98.00
33460;DHT22;19795;53.160;6.612;2022-09-06T11:30:26;28.50;98.00
33460;DHT22;19795;53.160;6.612;2022-09-06T11:33:26;29.40;97.00
33460;DHT22;19795;53.160;6.612;2022-09-06T11:36:13;28.50;97.40
33460;DHT22;19795;53.160;6.612;2022-09-06T11:38:39;29.40;96.40
33460;DHT22;19795;53.160;6.612;2022-09-06T11:41:13;28.10;97.40
33460;DHT22;19795;53.160;6.612;2022-09-06T11:43:47;27.90;97.70
33460;DHT22;19795;53.160;6.612;2022-09-06T11:51:42;27.10;98.50
33460;DHT22;19795;53.160;6.612;2022-09-06T12:02:04;27.70;98.20
33460;DHT22;19795;53.160;6.612;2022-09-06T12:07:24;28.60;97.30
33460;DHT22;19795;53.160;6.612;2022-09-06T12:09:50;28.70;97.40
33460;DHT22;19795;53.160;6.612;2022-09-06T12:12:37;28.90;97.40
33460;DHT22;19795;53.160;6.612;2022-09-06T12:17:47;28.20;97.30
33460;DHT22;19795;53.160;6.612;2022-09-06T12:26:02;28.80;97.30
33460;DHT22;19795;53.160;6.612;2022-09-06T12:28:51;28.80;96.60
33460;DHT22;19795;53.160;6.612;2022-09-06T12:31:21;29.00;96.70
33460;DHT22;19795;53.160;6.612;2022-09-06T12:33:48;28.90;97.10
33460;DHT22;19795;53.160;6.612;2022-09-06T12:36:17;29.30;96.30
33460;DHT22;19795;53.160;6.612;2022-09-06T12:39:08;28.60;96.10
33460;DHT22;19795;53.160;6.612;2022-09-06T12:41:42;29.30;96.30
33460;DHT22;19795;53.160;6.612;2022-09-06T12:44:09;30.00;95.70
33460;DHT22;19795;53.160;6.612;2022-09-06T12:46:36;29.70;95.70
33460;DHT22;19795;53.160;6.612;2022-09-06T12:49:07;29.20;95.90
33460;DHT22;19795;53.160;6.612;2022-09-06T12:51:35;29.10;96.00
33460;DHT22;19795;53.160;6.612;2022-09-06T12:56:43;29.10;95.80
33460;DHT22;19795;53.160;6.612;2022-09-06T12:59:12;29.30;96.00
33460;DHT22;19795;53.160;6.612;2022-09-06T13:01:41;29.50;95.60
33460;DHT22;19795;53.160;6.612;2022-09-06T13:04:20;29.30;95.60
33460;DHT22;19795;53.160;6.612;2022-09-06T13:06:48;29.30;95.20
33460;DHT22;19795;53.160;6.612;2022-09-06T13:09:17;29.50;95.20
33460;DHT22;19795;53.160;6.612;2022-09-06T13:11:44;29.70;95.10
33460;DHT22;19795;53.160;6.612;2022-09-06T13:14:16;30.10;95.30
33460;DHT22;19795;53.160;6.612;2022-09-06T13:16:49;30.80;94.40
33460;DHT22;19795;53.160;6.612;2022-09-06T13:19:36;30.30;94.20
33460;DHT22;19795;53.160;6.612;2022-09-06T13:22:07;29.90;94.00
33460;DHT22;19795;53.160;6.612;2022-09-06T13:29:57;29.30;94.70
33460;DHT22;19795;53.160;6.612;2022-09-06T13:32:25;29.40;94.50
33460;DHT22;19795;53.160;6.612;2022-09-06T13:34:51;29.10;94.70
33460;DHT22;19795;53.160;6.612;2022-09-06T13:37:25;29.30;94.40
33460;DHT22;19795;53.160;6.612;2022-09-06T13:39:51;29.10;94.40
33460;DHT22;19795;53.160;6.612;2022-09-06T13:42:29;29.10;94.50
33460;DHT22;19795;53.160;6.612;2022-09-06T13:44:55;29.10;94.60
33460;DHT22;19795;53.160;6.612;2022-09-06T13:47:25;29.30;94.20
33460;DHT22;19795;53.160;6.612;2022-09-06T13:49:51;29.80;94.00
33460;DHT22;19795;53.160;6.612;2022-09-06T13:52:19;30.50;93.80
33460;DHT22;19795;53.160;6.612;2022-09-06T13:54:45;31.60;93.10
33460;DHT22;19795;53.160;6.612;2022-09-06T13:57:13;32.60;92.60
33460;DHT22;19795;53.160;6.612;2022-09-06T13:59:38;32.10;91.70
33460;DHT22;19795;53.160;6.612;2022-09-06T14:02:10;31.70;91.90
33460;DHT22;19795;53.160;6.612;2022-09-06T14:04:36;31.50;92.20
33460;DHT22;19795;53.160;6.612;2022-09-06T14:07:02;31.10;93.00
33460;DHT22;19795;53.160;6.612;2022-09-06T14:09:29;31.80;92.00
33460;DHT22;19795;53.160;6.612;2022-09-06T14:11:55;32.00;91.90
33460;DHT22;19795;53.160;6.612;2022-09-06T14:14:20;32.40;92.30
33460;DHT22;19795;53.160;6.612;2022-09-06T14:16:46;32.70;91.80
33460;DHT22;19795;53.160;6.612;2022-09-06T14:19:13;33.10;92.20
33460;DHT22;19795;53.160;6.612;2022-09-06T14:21:39;33.10;90.50
33460;DHT22;19795;53.160;6.612;2022-09-06T14:24:05;31.50;91.50
33460;DHT22;19795;53.160;6.612;2022-09-06T14:26:31;30.60;92.40
33460;DHT22;19795;53.160;6.612;2022-09-06T14:28:57;29.80;92.90
33460;DHT22;19795;53.160;6.612;2022-09-06T14:31:25;29.20;93.70
33460;DHT22;19795;53.160;6.612;2022-09-06T14:33:52;28.90;93.90
33460;DHT22;19795;53.160;6.612;2022-09-06T14:36:20;28.70;94.20
33460;DHT22;19795;53.160;6.612;2022-09-06T14:38:47;28.60;94.30
33460;DHT22;19795;53.160;6.612;2022-09-06T14:41:14;28.50;94.40
33460;DHT22;19795;53.160;6.612;2022-09-06T14:43:47;28.50;94.20
33460;DHT22;19795;53.160;6.612;2022-09-06T14:46:14;28.50;94.90
33460;DHT22;19795;53.160;6.612;2022-09-06T14:48:41;28.50;94.80
33460;DHT22;19795;53.160;6.612;2022-09-06T14:53:32;28.60;94.50
33460;DHT22;19795;53.160;6.612;2022-09-06T14:56:03;28.60;95.00
33460;DHT22;19795;53.160;6.612;2022-09-06T14:58:33;28.70;94.90
33460;DHT22;19795;53.160;6.612;2022-09-06T15:01:26;28.70;94.70
33460;DHT22;19795;53.160;6.612;2022-09-06T15:03:55;28.60;95.10
33460;DHT22;19795;53.160;6.612;2022-09-06T15:06:23;28.60;94.80
33460;DHT22;19795;53.160;6.612;2022-09-06T15:08:49;28.60;94.60
33460;DHT22;19795;53.160;6.612;2022-09-06T15:11:27;28.40;95.10
33460;DHT22;19795;53.160;6.612;2022-09-06T15:13:54;28.30;95.30
33460;DHT22;19795;53.160;6.612;2022-09-06T15:16:20;28.40;95.50
33460;DHT22;19795;53.160;6.612;2022-09-06T15:18:46;28.40;94.80
33460;DHT22;19795;53.160;6.612;2022-09-06T15:21:14;28.40;95.80
33460;DHT22;19795;53.160;6.612;2022-09-06T15:23:41;28.30;94.90
33460;DHT22;19795;53.160;6.612;2022-09-06T15:26:08;28.30;94.90
33460;DHT22;19795;53.160;6.612;2022-09-06T15:28:37;28.30;96.00
33460;DHT22;19795;53.160;6.612;2022-09-06T15:31:04;28.20;95.50
33460;DHT22;19795;53.160;6.612;2022-09-06T15:33:31;28.10;96.00
33460;DHT22;19795;53.160;6.612;2022-09-06T15:35:58;28.20;95.70
33460;DHT22;19795;53.160;6.612;2022-09-06T15:38:25;28.30;97.40
33460;DHT22;19795;53.160;6.612;2022-09-06T15:40:50;28.40;96.00
33460;DHT22;19795;53.160;6.612;2022-09-06T15:43:16;28.60;95.50
33460;DHT22;19795;53.160;6.612;2022-09-06T15:45:48;28.90;95.20
33460;DHT22;19795;53.160;6.612;2022-09-06T15:48:15;28.80;95.00
33460;DHT22;19795;53.160;6.612;2022-09-06T15:50:42;28.70;94.60
33460;DHT22;19795;53.160;6.612;2022-09-06T15:53:08;28.60;94.50
33460;DHT22;19795;53.160;6.612;2022-09-06T15:55:34;28.50;94.70
33460;DHT22;19795;53.160;6.612;2022-09-06T15:58:17;28.30;94.90
33460;DHT22;19795;53.160;6.612;2022-09-06T16:00:43;28.20;94.90
33460;DHT22;19795;53.160;6.612;2022-09-06T16:03:09;28.20;95.90
33460;DHT22;19795;53.160;6.612;2022-09-06T16:05:35;28.10;95.20
33460;DHT22;19795;53.160;6.612;2022-09-06T16:08:00;27.90;95.20
33460;DHT22;19795;53.160;6.612;2022-09-06T16:10:26;27.70;95.50
33460;DHT22;19795;53.160;6.612;2022-09-06T16:12:52;27.50;96.40
33460;DHT22;19795;53.160;6.612;2022-09-06T16:15:19;27.30;96.60
33460;DHT22;19795;53.160;6.612;2022-09-06T16:17:45;27.20;96.60
33460;DHT22;19795;53.160;6.612;2022-09-06T16:20:12;27.10;96.60
33460;DHT22;19795;53.160;6.612;2022-09-06T16:22:38;27.00;97.40
33460;DHT22;19795;53.160;6.612;2022-09-06T16:25:04;26.90;97.30
33460;DHT22;19795;53.160;6.612;2022-09-06T16:27:30;26.90;97.60
33460;DHT22;19795;53.160;6.612;2022-09-06T16:29:55;26.90;98.10
33460;DHT22;19795;53.160;6.612;2022-09-06T16:32:21;26.90;98.10
33460;DHT22;19795;53.160;6.612;2022-09-06T16:34:46;26.90;98.00
33460;DHT22;19795;53.160;6.612;2022-09-06T16:37:12;26.90;98.30
33460;DHT22;19795;53.160;6.612;2022-09-06T16:39:38;26.80;98.20
33460;DHT22;19795;53.160;6.612;2022-09-06T16:42:04;26.70;98.70
33460;DHT22;19795;53.160;6.612;2022-09-06T16:44:30;26.50;99.00
33460;DHT22;19795;53.160;6.612;2022-09-06T16:46:56;26.30;99.40
33460;DHT22;19795;53.160;6.612;2022-09-06T16:49:25;26.20;99.70
33460;DHT22;19795;53.160;6.612;2022-09-06T16:51:51;26.10;99.90
33460;DHT22;19795;53.160;6.612;2022-09-06T16:54:16;26.00;99.90
33460;DHT22;19795;53.160;6.612;2022-09-06T16:56:43;25.90;99.90
33460;DHT22;19795;53.160;6.612;2022-09-06T16:59:09;25.70;99.90
33460;DHT22;19795;53.160;6.612;2022-09-06T17:01:37;25.60;99.90
33460;DHT22;19795;53.160;6.612;2022-09-06T17:04:06;25.40;99.90
33460;DHT22;19795;53.160;6.612;2022-09-06T17:06:32;25.30;99.90
33460;DHT22;19795;53.160;6.612;2022-09-06T17:09:03;25.30;99.90
33460;DHT22;19795;53.160;6.612;2022-09-06T17:11:29;25.10;99.90
33460;DHT22;19795;53.160;6.612;2022-09-06T17:13:55;25.30;99.90
33460;DHT22;19795;53.160;6.612;2022-09-06T17:16:21;25.00;99.90
33460;DHT22;19795;53.160;6.612;2022-09-06T17:19:08;25.00;99.90
33460;DHT22;19795;53.160;6.612;2022-09-06T17:21:34;24.90;99.90
33460;DHT22;19795;53.160;6.612;2022-09-06T17:24:00;24.80;99.90
33460;DHT22;19795;53.160;6.612;2022-09-06T17:26:30;24.70;99.90
33460;DHT22;19795;53.160;6.612;2022-09-06T17:28:57;24.70;99.90
33460;DHT22;19795;53.160;6.612;2022-09-06T17:31:23;24.70;99.90
33460;DHT22;19795;53.160;6.612;2022-09-06T17:33:49;24.70;99.90
33460;DHT22;19795;53.160;6.612;2022-09-06T17:36:26;24.60;99.90
33460;DHT22;19795;53.160;6.612;2022-09-06T17:38:59;24.60;99.90
33460;DHT22;19795;53.160;6.612;2022-09-06T17:41:28;24.50;99.90
33460;DHT22;19795;53.160;6.612;2022-09-06T17:43:55;24.50;99.90
33460;DHT22;19795;53.160;6.612;2022-09-06T17:46:23;24.50;99.90
33460;DHT22;19795;53.160;6.612;2022-09-06T17:48:49;24.50;99.90
33460;DHT22;19795;53.160;6.612;2022-09-06T17:51:15;24.40;99.90
33460;DHT22;19795;53.160;6.612;2022-09-06T17:53:41;24.40;99.90
33460;DHT22;19795;53.160;6.612;2022-09-06T17:56:10;24.30;99.90
33460;DHT22;19795;53.160;6.612;2022-09-06T17:58:37;24.30;99.90
33460;DHT22;19795;53.160;6.612;2022-09-06T18:01:11;24.20;99.90
33460;DHT22;19795;53.160;6.612;2022-09-06T18:03:41;24.10;99.90
33460;DHT22;19795;53.160;6.612;2022-09-06T18:06:09;23.90;99.90
33460;DHT22;19795;53.160;6.612;2022-09-06T18:08:35;23.90;99.90
33460;DHT22;19795;53.160;6.612;2022-09-06T18:13:33;23.60;99.90
33460;DHT22;19795;53.160;6.612;2022-09-06T18:15:59;23.50;99.90
33460;DHT22;19795;53.160;6.612;2022-09-06T18:18:28;23.40;99.90
33460;DHT22;19795;53.160;6.612;2022-09-06T18:20:54;23.20;99.90
33460;DHT22;19795;53.160;6.612;2022-09-06T18:23:20;23.10;99.90
33460;DHT22;19795;53.160;6.612;2022-09-06T18:25:59;23.00;99.90
33460;DHT22;19795;53.160;6.612;2022-09-06T18:28:27;23.10;99.90
33460;DHT22;19795;53.160;6.612;2022-09-06T18:30:56;23.10;99.90
33460;DHT22;19795;53.160;6.612;2022-09-06T18:33:22;23.00;99.90
33460;DHT22;19795;53.160;6.612;2022-09-06T18:35:49;22.90;99.90
33460;DHT22;19795;53.160;6.612;2022-09-06T18:38:15;22.90;99.90
33460;DHT22;19795;53.160;6.612;2022-09-06T18:40:52;22.70;99.90
33460;DHT22;19795;53.160;6.612;2022-09-06T18:43:19;22.60;99.90
33460;DHT22;19795;53.160;6.612;2022-09-06T18:45:45;22.40;99.90
33460;DHT22;19795;53.160;6.612;2022-09-06T18:48:10;22.20;99.90
33460;DHT22;19795;53.160;6.612;2022-09-06T18:50:38;22.00;99.90
33460;DHT22;19795;53.160;6.612;2022-09-06T18:53:04;21.80;99.90
33460;DHT22;19795;53.160;6.612;2022-09-06T18:55:38;21.70;99.90
33460;DHT22;19795;53.160;6.612;2022-09-06T18:58:07;21.50;99.90
33460;DHT22;19795;53.160;6.612;2022-09-06T19:00:33;21.60;99.90
33460;DHT22;19795;53.160;6.612;2022-09-06T19:02:59;21.60;99.90
33460;DHT22;19795;53.160;6.612;2022-09-06T19:05:25;21.60;99.90
33460;DHT22;19795;53.160;6.612;2022-09-06T19:07:50;21.60;99.90
33460;DHT22;19795;53.160;6.612;2022-09-06T19:10:16;21.60;99.90
33460;DHT22;19795;53.160;6.612;2022-09-06T19:12:42;21.60;99.90
33460;DHT22;19795;53.160;6.612;2022-09-06T19:15:08;21.50;99.90
33460;DHT22;19795;53.160;6.612;2022-09-06T19:17:35;21.40;99.90
33460;DHT22;19795;53.160;6.612;2022-09-06T19:20:02;21.50;99.90
33460;DHT22;19795;53.160;6.612;2022-09-06T19:22:28;21.50;99.90
33460;DHT22;19795;53.160;6.612;2022-09-06T19:24:53;21.50;99.90
33460;DHT22;19795;53.160;6.612;2022-09-06T19:27:19;21.50;99.90
33460;DHT22;19795;53.160;6.612;2022-09-06T19:29:45;21.40;99.90
33460;DHT22;19795;53.160;6.612;2022-09-06T19:32:11;21.40;99.90
33460;DHT22;19795;53.160;6.612;2022-09-06T19:34:37;21.50;99.90
33460;DHT22;19795;53.160;6.612;2022-09-06T19:37:02;21.40;99.90
33460;DHT22;19795;53.160;6.612;2022-09-06T19:39:28;21.40;99.90
33460;DHT22;19795;53.160;6.612;2022-09-06T19:41:55;21.30;99.90
33460;DHT22;19795;53.160;6.612;2022-09-06T19:44:21;21.40;99.90
33460;DHT22;19795;53.160;6.612;2022-09-06T19:46:46;21.30;99.90
33460;DHT22;19795;53.160;6.612;2022-09-06T19:49:15;21.30;99.90
33460;DHT22;19795;53.160;6.612;2022-09-06T19:51:41;21.30;99.90
33460;DHT22;19795;53.160;6.612;2022-09-06T19:54:08;21.30;99.90
33460;DHT22;19795;53.160;6.612;2022-09-06T19:56:34;21.20;99.90
33460;DHT22;19795;53.160;6.612;2022-09-06T19:59:03;21.20;99.90
33460;DHT22;19795;53.160;6.612;2022-09-06T20:01:31;21.20;99.90
33460;DHT22;19795;53.160;6.612;2022-09-06T20:03:58;21.10;99.90
33460;DHT22;19795;53.160;6.612;2022-09-06T20:06:24;21.00;99.90
33460;DHT22;19795;53.160;6.612;2022-09-06T20:08:52;20.90;99.90
33460;DHT22;19795;53.160;6.612;2022-09-06T20:11:19;20.80;99.90
33460;DHT22;19795;53.160;6.612;2022-09-06T20:13:45;20.80;99.90
33460;DHT22;19795;53.160;6.612;2022-09-06T20:16:12;20.90;99.90
33460;DHT22;19795;53.160;6.612;2022-09-06T20:18:38;20.90;99.90
33460;DHT22;19795;53.160;6.612;2022-09-06T20:21:05;20.80;99.90
33460;DHT22;19795;53.160;6.612;2022-09-06T20:23:31;20.70;99.90
33460;DHT22;19795;53.160;6.612;2022-09-06T20:26:11;20.70;99.90
33460;DHT22;19795;53.160;6.612;2022-09-06T20:28:40;20.70;99.90
33460;DHT22;19795;53.160;6.612;2022-09-06T20:31:14;20.60;99.90
33460;DHT22;19795;53.160;6.612;2022-09-06T20:33:41;20.60;99.90
33460;DHT22;19795;53.160;6.612;2022-09-06T20:36:08;20.60;99.90
33460;DHT22;19795;53.160;6.612;2022-09-06T20:38:37;20.50;99.90